Time;durP1;ratioP1;P1;durP2;ratioP2;P2;SDS_P1;SDS_P2;PMS_P1;PMS_P2;Temp;Humidity;BMP_temperature;BMP_pressure;BME280_temperature;BME280_humidity;BME280_pressure;Samples;Min_cycle;Max_cycle;Signal;HPM_P1;HPM_P2
2023/01/25 00:01:13;;;;;;;;;58.00;46.50;;;;;3.90;73.54;102581.03;4975775;28;46396;-71
2023/01/25 00:03:38;;;;;;;;;52.25;41.50;;;;;3.89;73.53;102583.63;4987174;28;55041;-72
2023/01/25 00:06:04;;;;;;;;;55.50;46.25;;;;;3.86;73.55;102580.97;5022647;28;57004;-72
2023/01/25 00:08:29;;;;;;;;;44.00;38.75;;;;;3.73;73.69;102566.81;4977787;28;45593;-70
2023/01/25 00:10:54;;;;;;;;;64.00;49.00;;;;;3.78;73.86;102575.59;4985504;28;45433;-71
2023/01/25 00:13:20;;;;;;;;;65.50;49.25;;;;;3.71;73.85;102571.09;4971013;28;45599;-71
2023/01/25 00:15:45;;;;;;;;;62.25;52.75;;;;;3.77;74.06;102577.31;4969918;28;45719;-71
2023/01/25 00:18:10;;;;;;;;;48.75;41.25;;;;;3.79;73.83;102572.13;4986352;28;45674;-70
2023/01/25 00:20:35;;;;;;;;;61.00;47.50;;;;;3.80;73.75;102576.50;4971684;28;50348;-69
2023/01/25 00:23:01;;;;;;;;;54.75;45.25;;;;;3.79;73.59;102573.03;4971194;28;45177;-71
2023/01/25 00:25:26;;;;;;;;;56.25;47.75;;;;;3.84;74.35;102572.25;4955188;28;45652;-70
2023/01/25 00:27:51;;;;;;;;;55.50;45.50;;;;;3.86;73.94;102573.16;4955581;28;45624;-71
2023/01/25 00:30:17;;;;;;;;;56.75;48.00;;;;;3.86;73.54;102568.81;4955106;28;47195;-72
2023/01/25 00:33:14;;;;;;;;;63.25;52.50;;;;;3.88;73.75;102577.53;4954867;28;47218;-72
2023/01/25 00:35:40;;;;;;;;;55.00;43.25;;;;;3.89;74.20;102566.25;4979614;28;45418;-71
2023/01/25 00:38:29;;;;;;;;;55.00;46.75;;;;;3.89;73.43;102566.25;4976856;28;45509;-71
2023/01/25 00:40:56;;;;;;;;;54.00;43.75;;;;;3.85;74.05;102568.78;4967899;28;45929;-71
2023/01/25 00:43:22;;;;;;;;;52.50;45.25;;;;;3.87;73.87;102570.56;4960776;28;45507;-71
2023/01/25 00:45:47;;;;;;;;;55.75;46.50;;;;;3.87;73.83;102578.38;4955835;28;46125;-71
2023/01/25 00:48:13;;;;;;;;;59.25;47.25;;;;;3.82;73.84;102572.19;4972632;28;45566;-71
2023/01/25 00:50:38;;;;;;;;;57.00;47.00;;;;;3.78;73.65;102572.97;4980529;28;46225;-71
2023/01/25 00:53:03;;;;;;;;;60.50;47.75;;;;;3.72;74.15;102572.84;4982485;28;45427;-72
2023/01/25 00:55:29;;;;;;;;;59.25;47.00;;;;;3.60;74.63;102550.94;4974077;28;45625;-71
2023/01/25 00:57:54;;;;;;;;;57.75;47.50;;;;;3.71;74.54;102569.41;5011580;27;45419;-72
2023/01/25 01:00:20;;;;;;;;;59.25;49.00;;;;;3.73;74.65;102561.59;5013532;27;61365;-71
2023/01/25 01:02:45;;;;;;;;;51.75;43.75;;;;;3.76;74.35;102561.66;4960018;28;45289;-71
2023/01/25 01:05:10;;;;;;;;;62.50;51.25;;;;;3.68;74.26;102545.00;4969210;28;45378;-70
2023/01/25 01:07:35;;;;;;;;;58.00;47.25;;;;;3.74;74.02;102563.34;4977573;28;45469;-71
2023/01/25 01:10:01;;;;;;;;;59.75;48.75;;;;;3.63;74.57;102545.78;4992653;28;46916;-71
2023/01/25 01:12:26;;;;;;;;;54.25;46.25;;;;;3.68;74.16;102555.44;4988249;28;45535;-70
2023/01/25 01:14:51;;;;;;;;;53.00;43.00;;;;;3.68;74.43;102560.63;4973082;28;45409;-72
2023/01/25 01:17:17;;;;;;;;;55.25;47.00;;;;;3.64;74.00;102555.38;4973933;28;45523;-71
2023/01/25 01:19:42;;;;;;;;;54.00;44.50;;;;;3.65;74.43;102554.50;4974126;28;61038;-72
2023/01/25 01:22:07;;;;;;;;;60.25;48.00;;;;;3.69;74.87;102549.38;4963069;28;60770;-71
2023/01/25 01:24:33;;;;;;;;;57.00;48.00;;;;;3.71;74.80;102555.50;4970394;28;45363;-70
2023/01/25 01:26:58;;;;;;;;;58.50;48.75;;;;;3.69;74.85;102554.56;4978536;28;45425;-71
2023/01/25 01:29:23;;;;;;;;;57.25;46.75;;;;;3.67;74.74;102548.47;4973713;28;45822;-70
2023/01/25 01:31:51;;;;;;;;;58.25;47.00;;;;;3.72;74.52;102554.63;4970825;28;45395;-72
2023/01/25 01:34:17;;;;;;;;;58.25;47.75;;;;;3.69;74.60;102552.84;4970057;28;45329;-70
2023/01/25 01:36:43;;;;;;;;;54.25;44.75;;;;;3.72;74.88;102559.84;4965462;28;45551;-72
2023/01/25 01:39:09;;;;;;;;;55.75;47.00;;;;;3.70;74.61;102558.94;4977013;28;46401;-71
2023/01/25 01:41:35;;;;;;;;;57.50;47.50;;;;;3.64;74.34;102552.75;4972691;28;45289;-72
2023/01/25 01:44:01;;;;;;;;;60.50;47.75;;;;;3.63;74.24;102551.00;4971635;28;45939;-71
2023/01/25 01:46:37;;;;;;;;;53.00;44.25;;;;;3.67;74.25;102556.28;4976687;28;45454;-71
2023/01/25 01:49:15;;;;;;;;;60.25;49.00;;;;;3.67;74.31;102566.69;4974661;28;46836;-71
2023/01/25 01:51:44;;;;;;;;;61.25;49.50;;;;;3.68;74.17;102565.84;4972599;28;45478;-73
2023/01/25 01:54:34;;;;;;;;;57.00;46.50;;;;;3.64;73.95;102570.09;4973623;28;45323;-71
2023/01/25 01:57:06;;;;;;;;;61.50;49.50;;;;;3.63;74.55;102569.22;4973947;28;45315;-70
2023/01/25 01:59:43;;;;;;;;;47.50;40.50;;;;;3.59;74.90;102575.22;4985611;28;47122;-71
2023/01/25 02:02:08;;;;;;;;;60.25;49.00;;;;;3.59;74.83;102567.41;4953530;28;45332;-71
2023/01/25 02:04:35;;;;;;;;;62.00;49.50;;;;;3.58;74.48;102564.75;4972868;28;49709;-72
2023/01/25 02:07:30;;;;;;;;;56.75;46.75;;;;;3.58;74.84;102567.34;4971239;28;45630;-72
2023/01/25 02:09:57;;;;;;;;;55.00;46.00;;;;;3.55;74.51;102570.78;4979971;28;45449;-71
2023/01/25 02:12:23;;;;;;;;;57.25;48.25;;;;;3.54;74.79;102563.81;4977319;28;45591;-71
2023/01/25 02:14:50;;;;;;;;;54.25;46.25;;;;;3.53;75.03;102571.59;4971916;28;45307;-71
2023/01/25 02:17:21;;;;;;;;;62.75;50.50;;;;;3.51;75.45;102569.84;4993062;28;45469;-71
2023/01/25 02:19:57;;;;;;;;;59.25;48.75;;;;;3.56;75.13;102569.03;5010401;28;46428;-71
2023/01/25 02:22:34;;;;;;;;;56.50;46.25;;;;;3.53;74.84;102569.88;4970970;28;45306;-71
2023/01/25 02:25:12;;;;;;;;;55.50;45.00;;;;;3.55;74.85;102567.28;4975814;28;45206;-70
2023/01/25 02:27:41;;;;;;;;;58.25;47.50;;;;;3.58;75.40;102568.25;4974793;28;45406;-71
2023/01/25 02:30:08;;;;;;;;;59.00;49.00;;;;;3.62;74.91;102571.78;4976121;28;46289;-72
2023/01/25 02:32:33;;;;;;;;;51.50;44.25;;;;;3.64;75.17;102575.28;4973634;28;45323;-71
2023/01/25 02:34:58;;;;;;;;;58.50;47.75;;;;;3.67;74.84;102571.88;4973188;28;45304;-70
2023/01/25 02:37:24;;;;;;;;;55.25;47.00;;;;;3.69;75.34;102575.41;4972891;28;46005;-71
2023/01/25 02:39:50;;;;;;;;;58.25;48.25;;;;;3.67;75.30;102577.09;4964339;28;47571;-71
2023/01/25 02:42:16;;;;;;;;;54.00;45.75;;;;;3.67;75.24;102575.34;4953367;28;45178;-71
2023/01/25 02:44:42;;;;;;;;;63.25;48.00;;;;;3.59;74.92;102569.13;4953434;28;45485;-71
2023/01/25 02:47:07;;;;;;;;;59.50;49.50;;;;;3.64;75.42;102576.19;4976087;28;45379;-71
2023/01/25 02:49:36;;;;;;;;;58.50;45.75;;;;;3.58;74.88;102562.16;4983988;28;47424;-71
2023/01/25 02:52:03;;;;;;;;;57.50;46.25;;;;;3.65;75.46;102569.25;4986902;28;45532;-70
2023/01/25 02:54:29;;;;;;;;;60.50;49.50;;;;;3.64;75.13;102572.69;4972910;28;45213;-71
2023/01/25 02:56:55;;;;;;;;;58.25;47.75;;;;;3.61;75.79;102567.41;4973489;28;45546;-71
2023/01/25 02:59:21;;;;;;;;;52.50;45.00;;;;;3.61;75.63;102576.13;4972832;28;45451;-71
2023/01/25 03:01:46;;;;;;;;;58.50;48.25;;;;;3.56;75.11;102562.13;4972522;28;46056;-73
2023/01/25 03:04:12;;;;;;;;;51.75;42.75;;;;;3.58;75.58;102563.03;5014663;28;45327;-70
2023/01/25 03:06:38;;;;;;;;;59.50;47.75;;;;;3.60;75.69;102560.47;4967577;28;45367;-71
2023/01/25 03:09:06;;;;;;;;;60.00;47.25;;;;;3.57;76.02;102557.78;4976422;28;46215;-70
2023/01/25 03:11:31;;;;;;;;;54.50;46.00;;;;;3.54;76.06;102557.72;5027688;28;45539;-70
2023/01/25 03:13:57;;;;;;;;;53.50;44.50;;;;;3.57;76.20;102560.41;4962401;28;45426;-69
2023/01/25 03:16:22;;;;;;;;;59.50;48.00;;;;;3.61;76.17;102564.81;4963817;28;48662;-71
2023/01/25 03:18:47;;;;;;;;;65.25;51.75;;;;;3.61;75.42;102563.09;4972418;28;58798;-71
2023/01/25 03:21:16;;;;;;;;;62.75;52.75;;;;;3.69;75.82;102562.38;4959314;28;45176;-70
2023/01/25 03:23:42;;;;;;;;;55.75;46.50;;;;;3.67;75.64;102561.47;4952356;28;45417;-71
2023/01/25 03:26:13;;;;;;;;;59.25;46.00;;;;;3.67;75.98;102561.47;4975101;28;45331;-71
2023/01/25 03:28:40;;;;;;;;;61.00;49.50;;;;;3.71;76.40;102565.91;4970902;28;46302;-70
2023/01/25 03:31:07;;;;;;;;;56.50;46.50;;;;;3.70;76.50;102565.00;4967406;28;45488;-71
2023/01/25 03:33:32;;;;;;;;;62.50;52.00;;;;;3.68;75.88;102565.84;4952826;28;45346;-70
2023/01/25 03:35:58;;;;;;;;;66.25;51.00;;;;;3.68;76.72;102558.88;4964469;28;45314;-70
2023/01/25 03:38:24;;;;;;;;;61.00;52.00;;;;;3.63;76.52;102558.81;4975321;28;45604;-70
2023/01/25 03:40:50;;;;;;;;;62.50;51.25;;;;;3.58;76.47;102560.44;4971326;28;45461;-71
2023/01/25 03:43:15;;;;;;;;;61.50;51.00;;;;;3.58;77.05;102562.16;4955448;28;45396;-71
2023/01/25 03:45:41;;;;;;;;;63.50;52.00;;;;;3.31;77.18;102508.69;4968790;28;45831;-70
2023/01/25 03:48:06;;;;;;;;;60.25;48.75;;;;;3.51;76.98;102555.97;4970248;28;46707;-71
2023/01/25 03:50:32;;;;;;;;;62.25;50.75;;;;;3.53;76.79;102556.88;4973295;28;45367;-70
2023/01/25 03:53:02;;;;;;;;;58.50;49.25;;;;;3.53;76.67;102558.56;4985137;28;46100;-71
2023/01/25 03:55:27;;;;;;;;;65.50;51.50;;;;;3.42;77.72;102550.56;4973650;28;45453;-72
2023/01/25 03:57:53;;;;;;;;;67.00;52.00;;;;;3.40;77.78;102547.91;4973093;28;45333;-71
2023/01/25 04:00:18;;;;;;;;;63.75;51.50;;;;;3.36;77.20;102546.97;4962975;28;45249;-71
2023/01/25 04:02:45;;;;;;;;;59.25;49.75;;;;;3.34;77.65;102545.19;4969802;28;45327;-72
2023/01/25 04:05:10;;;;;;;;;58.25;48.25;;;;;3.28;78.16;102532.03;4972755;28;45619;-73
2023/01/25 04:07:36;;;;;;;;;65.75;52.00;;;;;3.33;78.15;102544.31;4974240;28;46109;-71
2023/01/25 04:10:02;;;;;;;;;59.25;48.00;;;;;3.35;78.60;102544.34;4957366;28;45359;-71
2023/01/25 04:12:27;;;;;;;;;61.75;51.50;;;;;3.41;78.78;102548.81;4962553;28;45571;-71
2023/01/25 04:14:53;;;;;;;;;65.00;52.25;;;;;3.39;78.93;102540.94;4970418;28;45304;-70
2023/01/25 04:17:18;;;;;;;;;66.00;51.75;;;;;3.25;78.92;102521.56;4986554;28;57414;-72
2023/01/25 04:19:43;;;;;;;;;59.50;49.00;;;;;3.35;78.41;102545.22;4973749;28;63125;-71
2023/01/25 04:22:09;;;;;;;;;62.75;51.50;;;;;3.32;78.78;102547.75;4965799;28;45271;-71
2023/01/25 04:24:34;;;;;;;;;54.25;44.50;;;;;3.27;78.61;102544.19;4969836;28;45256;-71
2023/01/25 04:26:59;;;;;;;;;60.25;49.25;;;;;3.22;78.63;102549.28;4974732;27;51954;-70
2023/01/25 04:29:25;;;;;;;;;61.25;49.50;;;;;3.20;79.23;102545.75;4976207;28;45194;-71
2023/01/25 04:31:50;;;;;;;;;63.75;51.50;;;;;3.19;78.89;102550.94;4974930;28;45149;-73
2023/01/25 04:34:15;;;;;;;;;61.75;50.75;;;;;3.19;79.82;102548.34;4974605;28;45220;-71
2023/01/25 04:36:41;;;;;;;;;59.00;49.00;;;;;3.18;79.23;102546.56;4974146;28;46202;-70
2023/01/25 04:39:06;;;;;;;;;59.50;49.75;;;;;3.19;79.84;102548.34;4973629;28;45413;-71
2023/01/25 04:41:31;;;;;;;;;60.25;48.00;;;;;3.20;79.29;102539.69;4974671;28;45310;-72
2023/01/25 04:43:57;;;;;;;;;57.00;46.00;;;;;3.19;79.64;102537.94;4974935;28;45390;-71
2023/01/25 04:46:22;;;;;;;;;56.00;45.75;;;;;3.28;80.13;102545.03;4974392;28;46267;-71
2023/01/25 04:48:47;;;;;;;;;63.00;51.50;;;;;3.32;80.09;102541.66;4972263;28;45441;-72
2023/01/25 04:51:13;;;;;;;;;59.50;50.75;;;;;3.36;80.02;102544.38;4988944;28;45587;-72
2023/01/25 04:53:39;;;;;;;;;62.00;50.00;;;;;3.35;79.54;102540.03;4974561;28;45666;-70
2023/01/25 04:56:05;;;;;;;;;61.75;49.00;;;;;3.31;79.67;102533.00;4965386;28;46184;-71
2023/01/25 04:58:30;;;;;;;;;62.00;51.00;;;;;3.27;79.81;102533.78;5065232;28;45429;-70
2023/01/25 05:01:00;;;;;;;;;57.50;46.00;;;;;3.25;79.43;102535.47;5040536;27;45447;-71
2023/01/25 05:03:25;;;;;;;;;47.75;39.75;;;;;3.18;79.75;102542.25;4989598;28;45477;-70
2023/01/25 05:05:51;;;;;;;;;57.50;47.25;;;;;3.06;79.79;102529.84;4978108;28;46213;-71
2023/01/25 05:08:16;;;;;;;;;58.25;48.00;;;;;3.07;79.86;102531.59;4973767;28;52895;-71
2023/01/25 05:10:42;;;;;;;;;55.50;44.25;;;;;3.05;80.21;102533.28;4963818;28;45488;-70
2023/01/25 05:13:07;;;;;;;;;46.00;41.25;;;;;3.01;80.03;102534.06;4974160;28;45413;-72
2023/01/25 05:15:32;;;;;;;;;53.25;44.50;;;;;2.89;79.56;102523.38;4963829;28;46008;-71
2023/01/25 05:17:58;;;;;;;;;53.00;44.25;;;;;2.84;79.62;102514.59;4980922;28;45406;-70
2023/01/25 05:20:23;;;;;;;;;60.00;48.25;;;;;2.96;80.05;102540.00;4972783;28;46076;-72
2023/01/25 05:22:48;;;;;;;;;49.50;42.75;;;;;2.99;80.47;102534.88;4957232;28;45400;-71
2023/01/25 05:27:57;;;;;;;;;50.75;43.25;;;;;3.04;80.85;102521.13;4971045;28;45498;-74
2023/01/25 05:30:23;;;;;;;;;48.75;43.25;;;;;3.13;80.77;102523.06;4971535;28;45466;-70
2023/01/25 05:32:49;;;;;;;;;50.50;40.75;;;;;3.16;80.79;102524.84;4966287;28;45466;-70
2023/01/25 05:35:14;;;;;;;;;42.25;39.25;;;;;3.17;80.32;102524.88;4963664;28;45468;-71
2023/01/25 05:37:40;;;;;;;;;49.25;39.25;;;;;3.14;80.21;102517.03;4965516;28;45414;-71
2023/01/25 05:40:06;;;;;;;;;47.50;40.75;;;;;3.18;79.59;102528.34;4956270;28;45331;-70
2023/01/25 05:42:31;;;;;;;;;47.50;40.50;;;;;3.18;80.19;102525.75;4969141;28;45513;-71
2023/01/25 05:44:56;;;;;;;;;43.75;37.50;;;;;3.11;79.21;102516.94;4977467;28;58943;-70
2023/01/25 05:47:22;;;;;;;;;48.75;41.50;;;;;3.03;79.29;102514.16;4980172;28;50265;-71
2023/01/25 05:49:47;;;;;;;;;48.25;39.50;;;;;3.11;80.00;102514.34;4982191;28;45299;-71
2023/01/25 05:52:14;;;;;;;;;47.00;40.00;;;;;3.12;79.93;102520.41;4987336;28;45566;-71
2023/01/25 05:54:39;;;;;;;;;53.50;43.00;;;;;3.11;79.27;102529.06;4955857;28;45342;-70
2023/01/25 05:57:05;;;;;;;;;40.50;36.25;;;;;3.12;80.02;102517.81;4965932;28;45343;-69
2023/01/25 05:59:30;;;;;;;;;51.00;40.75;;;;;3.12;79.54;102516.09;5077676;27;45283;-74
2023/01/25 06:01:55;;;;;;;;;42.50;38.50;;;;;3.14;79.93;102518.72;5000199;27;45548;-72
2023/01/25 06:04:21;;;;;;;;;36.00;34.75;;;;;3.13;80.21;102514.38;4975328;28;46051;-71
2023/01/25 06:06:46;;;;;;;;;37.00;35.75;;;;;3.12;79.14;102512.63;4974103;28;45280;-71
2023/01/25 06:09:12;;;;;;;;;38.25;33.25;;;;;3.12;79.15;102520.41;4976762;28;45253;-70
2023/01/25 06:11:38;;;;;;;;;39.75;37.75;;;;;3.10;79.51;102514.31;4976384;28;45379;-71
2023/01/25 06:14:03;;;;;;;;;39.25;33.75;;;;;3.09;79.38;102516.03;4972089;28;45413;-72
2023/01/25 06:16:29;;;;;;;;;31.50;30.75;;;;;3.07;79.69;102516.00;4988423;28;45327;-71
2023/01/25 06:18:54;;;;;;;;;32.75;30.75;;;;;3.04;78.61;102521.13;4971911;28;45596;-72
2023/01/25 06:21:19;;;;;;;;;38.50;34.75;;;;;3.01;78.62;102515.84;4983522;28;45615;-71
2023/01/25 06:23:45;;;;;;;;;39.00;35.50;;;;;2.96;79.50;102509.66;4960804;28;45893;-72
2023/01/25 06:26:13;;;;;;;;;37.75;35.75;;;;;2.95;79.40;102518.31;4979383;28;45358;-71
2023/01/25 06:28:39;;;;;;;;;30.00;27.75;;;;;2.90;79.92;102504.34;4974802;28;45590;-72
2023/01/25 06:31:04;;;;;;;;;30.00;29.50;;;;;2.97;79.63;102516.63;4965147;28;45513;-72
2023/01/25 06:33:30;;;;;;;;;30.00;27.50;;;;;2.93;78.84;102512.19;4986730;27;47378;-71
2023/01/25 06:35:59;;;;;;;;;40.75;35.00;;;;;2.94;79.77;102511.34;4960289;28;45454;-71
2023/01/25 06:38:25;;;;;;;;;31.25;28.75;;;;;2.90;78.75;102513.03;4972639;28;45379;-70
2023/01/25 06:40:50;;;;;;;;;27.75;26.50;;;;;2.88;78.72;102512.13;4971867;28;45715;-71
2023/01/25 06:43:15;;;;;;;;;40.00;35.75;;;;;2.91;79.26;102516.50;4972520;28;45966;-70
2023/01/25 06:45:41;;;;;;;;;27.25;27.00;;;;;2.87;79.67;102509.47;4976337;28;49180;-71
2023/01/25 06:48:06;;;;;;;;;40.75;35.00;;;;;2.88;78.46;102519.03;4963174;28;45605;-71
2023/01/25 06:50:31;;;;;;;;;34.75;33.50;;;;;2.83;78.71;102512.84;4972633;27;45561;-70
2023/01/25 06:52:57;;;;;;;;;28.50;27.25;;;;;2.62;79.60;102475.13;4972497;28;46954;-70
2023/01/25 06:55:22;;;;;;;;;24.75;24.75;;;;;2.78;79.13;102499.75;4971812;28;45193;-71
2023/01/25 06:57:48;;;;;;;;;25.75;23.75;;;;;2.87;80.24;102499.06;4988762;28;45749;-71
2023/01/25 07:00:17;;;;;;;;;33.00;31.75;;;;;2.91;79.05;102498.28;4971556;28;45132;-71
2023/01/25 07:02:42;;;;;;;;;21.00;21.00;;;;;2.99;79.31;102501.94;4952823;28;46778;-69
2023/01/25 07:05:08;;;;;;;;;24.25;21.75;;;;;3.01;79.24;102496.78;4965355;28;45245;-71
2023/01/25 07:07:34;;;;;;;;;25.00;25.00;;;;;2.94;78.12;102487.09;4971455;28;45363;-71
2023/01/25 07:10:00;;;;;;;;;30.25;26.25;;;;;2.97;77.87;102488.03;4971698;28;45392;-70
2023/01/25 07:12:27;;;;;;;;;25.25;25.00;;;;;2.95;78.02;102492.31;4973863;28;47406;-72
2023/01/25 07:14:53;;;;;;;;;22.00;20.25;;;;;2.87;78.00;102484.38;4972592;28;45378;-70
2023/01/25 07:17:18;;;;;;;;;30.50;26.75;;;;;2.91;77.70;102495.69;4980195;28;48341;-71
2023/01/25 07:19:43;;;;;;;;;29.25;28.25;;;;;2.93;78.24;102499.19;4985004;28;45506;-70
2023/01/25 07:22:09;;;;;;;;;26.25;25.00;;;;;2.92;77.73;102505.25;4964871;28;47126;-72
2023/01/25 07:24:34;;;;;;;;;26.75;25.75;;;;;2.87;78.21;102504.25;4953333;28;45337;-71
2023/01/25 07:26:59;;;;;;;;;27.25;27.25;;;;;2.83;77.83;102503.34;4980028;28;45466;-72
2023/01/25 07:29:25;;;;;;;;;27.25;27.25;;;;;2.83;78.23;102505.94;4975585;28;45563;-73
2023/01/25 07:31:50;;;;;;;;;34.50;31.50;;;;;2.85;78.40;102503.34;4965551;28;45490;-72
2023/01/25 07:34:15;;;;;;;;;23.00;23.00;;;;;2.74;78.10;102493.59;4977031;28;46918;-74
2023/01/25 07:36:45;;;;;;;;;17.50;17.50;;;;;2.78;78.64;102500.63;4983393;28;45363;-72
2023/01/25 07:39:11;;;;;;;;;24.25;23.00;;;;;2.75;78.95;102499.69;4959636;28;45470;-73
2023/01/25 07:41:37;;;;;;;;;30.25;29.75;;;;;2.76;77.95;102499.69;4973552;28;46508;-64
2023/01/25 07:44:02;;;;;;;;;26.00;26.00;;;;;2.76;77.83;102499.69;4979744;28;45362;-65
2023/01/25 07:46:27;;;;;;;;;28.75;27.50;;;;;2.75;77.82;102510.06;4986754;28;45568;-68
2023/01/25 07:48:53;;;;;;;;;30.25;30.25;;;;;2.77;79.00;102503.19;4974595;28;45214;-67
2023/01/25 07:51:28;;;;;;;;;27.50;26.00;;;;;2.74;78.42;102492.72;4974394;28;45449;-70
2023/01/25 07:54:00;;;;;;;;;24.00;23.25;;;;;2.75;78.64;102502.28;4974055;28;46053;-68
2023/01/25 07:56:29;;;;;;;;;25.00;24.75;;;;;2.72;78.79;102499.59;4975427;28;45434;-69
2023/01/25 07:58:56;;;;;;;;;27.25;27.25;;;;;2.72;78.05;102497.88;4975628;28;45535;-69
2023/01/25 08:01:24;;;;;;;;;28.25;26.50;;;;;2.80;78.66;102503.25;4981768;28;45660;-68
2023/01/25 08:03:50;;;;;;;;;24.25;23.00;;;;;2.83;77.69;102503.34;4975068;28;45336;-68
2023/01/25 08:06:16;;;;;;;;;25.25;24.75;;;;;2.83;78.67;102500.72;4974904;28;45441;-68
2023/01/25 08:08:47;;;;;;;;;23.25;22.25;;;;;2.84;77.71;102499.00;4975917;28;45595;-68
2023/01/25 08:11:19;;;;;;;;;18.25;18.25;;;;;2.83;78.14;102492.94;4975429;28;45753;-67
2023/01/25 08:13:46;;;;;;;;;21.75;21.75;;;;;2.82;77.28;102490.28;4973911;28;45387;-67
2023/01/25 08:16:12;;;;;;;;;18.75;17.00;;;;;2.75;77.65;102492.75;4975911;28;45288;-67
2023/01/25 08:18:37;;;;;;;;;24.50;23.00;;;;;2.75;77.53;102489.28;4975581;28;45474;-68
2023/01/25 08:21:03;;;;;;;;;24.50;24.00;;;;;2.71;77.43;102492.66;4976330;28;45301;-67
2023/01/25 08:23:28;;;;;;;;;21.50;21.50;;;;;2.75;77.76;102500.53;4975993;28;45382;-68
2023/01/25 08:25:55;;;;;;;;;27.50;25.50;;;;;2.72;77.23;102497.00;4974691;28;45407;-68
2023/01/25 08:28:21;;;;;;;;;24.00;23.50;;;;;2.69;78.01;102492.59;4974510;28;45378;-68
2023/01/25 08:30:46;;;;;;;;;35.75;30.50;;;;;2.70;78.29;102494.34;4973948;28;46470;-68
2023/01/25 08:33:12;;;;;;;;;26.25;25.50;;;;;2.73;77.54;102491.84;4972119;28;45405;-67
2023/01/25 08:35:37;;;;;;;;;22.50;21.75;;;;;2.76;77.01;102491.91;4974162;28;45279;-69
2023/01/25 08:38:03;;;;;;;;;27.00;25.75;;;;;2.77;76.95;102492.78;4974044;28;45306;-68
2023/01/25 08:40:28;;;;;;;;;25.00;25.00;;;;;2.75;76.65;102494.47;4974008;28;45237;-67
2023/01/25 08:42:54;;;;;;;;;29.00;29.00;;;;;2.72;77.02;102484.03;4973765;28;45333;-68
2023/01/25 08:45:19;;;;;;;;;25.00;25.00;;;;;2.73;77.71;102494.44;4973761;28;50114;-68
2023/01/25 08:47:44;;;;;;;;;33.00;29.75;;;;;2.77;77.58;102493.66;4974648;28;45489;-67
2023/01/25 08:50:10;;;;;;;;;21.75;21.25;;;;;2.76;77.22;102486.72;4973958;28;46205;-67
2023/01/25 08:52:35;;;;;;;;;30.75;28.50;;;;;2.73;77.42;102486.63;4972470;28;45483;-68
2023/01/25 08:55:00;;;;;;;;;30.25;30.00;;;;;2.67;77.34;102481.31;4973915;28;45465;-67
2023/01/25 08:57:26;;;;;;;;;23.25;23.00;;;;;2.69;76.64;102486.53;4971634;28;50251;-67
2023/01/25 08:59:51;;;;;;;;;22.00;21.00;;;;;2.67;77.88;102486.50;4972605;28;46086;-67
2023/01/25 09:02:18;;;;;;;;;32.00;27.50;;;;;2.62;77.24;102486.38;4973899;28;45388;-68
2023/01/25 09:04:43;;;;;;;;;25.50;25.50;;;;;2.55;77.10;102475.81;4974162;28;45400;-67
2023/01/25 09:07:09;;;;;;;;;30.50;26.25;;;;;2.56;77.07;102482.75;4974211;28;45390;-69
2023/01/25 09:09:34;;;;;;;;;17.00;17.00;;;;;2.54;77.36;102481.84;4974070;28;45857;-68
2023/01/25 09:11:59;;;;;;;;;25.50;24.75;;;;;2.57;77.36;102477.59;4973690;28;45273;-68
2023/01/25 09:14:25;;;;;;;;;27.00;27.00;;;;;2.57;77.55;102475.00;4973575;28;45339;-68
2023/01/25 09:16:50;;;;;;;;;30.75;30.75;;;;;2.59;77.66;102478.50;4973489;28;50492;-69
2023/01/25 09:19:15;;;;;;;;;30.75;30.25;;;;;2.56;77.60;102469.78;4973957;28;45473;-66
2023/01/25 09:21:41;;;;;;;;;31.25;31.25;;;;;2.58;77.55;102476.75;4973856;28;45479;-68
2023/01/25 09:24:06;;;;;;;;;35.75;32.00;;;;;2.58;77.58;102481.09;4974187;28;45387;-70
2023/01/25 09:26:33;;;;;;;;;31.50;31.50;;;;;2.61;78.38;102478.56;4974095;28;45286;-68
2023/01/25 09:28:59;;;;;;;;;38.75;35.50;;;;;2.65;78.81;102477.78;4973712;28;45998;-67
2023/01/25 09:31:24;;;;;;;;;34.50;30.50;;;;;2.68;78.02;102480.47;4973882;28;45212;-68
2023/01/25 09:33:51;;;;;;;;;31.50;29.75;;;;;2.62;77.08;102468.19;4974071;28;45343;-68
2023/01/25 09:36:17;;;;;;;;;34.00;30.00;;;;;2.63;77.93;102469.06;4974040;28;45605;-68
2023/01/25 09:38:42;;;;;;;;;46.50;39.75;;;;;2.65;78.05;102466.50;4973630;28;46349;-68
2023/01/25 09:41:29;;;;;;;;;24.25;21.00;;;;;2.61;77.77;102463.81;4973525;28;45328;-69
2023/01/25 09:44:19;;;;;;;;;79.00;62.00;;;;;2.66;78.37;102463.94;4975026;28;45352;-68
2023/01/25 09:46:48;;;;;;;;;32.00;32.00;;;;;2.66;77.58;102463.94;4973861;28;45270;-69
2023/01/25 09:49:48;;;;;;;;;40.00;36.50;;;;;2.65;77.35;102472.59;4973766;28;46345;-68
2023/01/25 09:52:49;;;;;;;;;33.50;30.50;;;;;2.68;78.25;102475.25;4973714;28;45389;-70
2023/01/25 09:55:18;;;;;;;;;31.25;31.25;;;;;2.67;78.31;102476.09;4975259;28;45336;-70
2023/01/25 09:57:46;;;;;;;;;128.00;124.75;;;;;2.70;78.07;102476.16;4972210;28;45555;-69
2023/01/25 10:00:46;;;;;;;;;71.50;57.75;;;;;2.67;78.15;102477.84;4973519;28;47096;-70
2023/01/25 10:03:39;;;;;;;;;28.75;28.25;;;;;2.68;77.97;102484.78;5005563;28;45395;-70
2023/01/25 10:06:11;;;;;;;;;28.75;28.00;;;;;2.65;78.32;102474.28;4972023;28;45407;-70
2023/01/25 10:08:41;;;;;;;;;27.75;25.25;;;;;2.71;78.19;102480.53;4973507;28;45374;-68
2023/01/25 10:11:19;;;;;;;;;32.75;31.75;;;;;2.75;77.62;102477.16;4973084;28;45737;-67
2023/01/25 10:13:44;;;;;;;;;32.25;32.25;;;;;2.75;77.39;102474.56;4973035;28;45184;-70
2023/01/25 10:16:30;;;;;;;;;32.50;30.00;;;;;2.81;77.24;102486.81;4973222;28;45245;-66
2023/01/25 10:19:09;;;;;;;;;28.00;25.25;;;;;2.82;76.86;102485.97;4973360;28;45306;-67
2023/01/25 10:21:41;;;;;;;;;29.00;27.75;;;;;2.78;76.76;102485.03;4973034;28;46395;-69
2023/01/25 10:24:33;;;;;;;;;28.25;28.25;;;;;2.78;76.42;102478.97;4973262;28;46125;-70
2023/01/25 10:27:34;;;;;;;;;33.25;31.00;;;;;2.70;76.91;102470.97;4973632;28;45323;-67
2023/01/25 10:30:25;;;;;;;;;41.00;34.75;;;;;2.80;76.69;102490.28;4973897;28;45345;-67
2023/01/25 10:32:53;;;;;;;;;38.50;36.75;;;;;2.70;77.33;102476.16;4973727;28;46182;-68
2023/01/25 10:35:22;;;;;;;;;27.00;27.00;;;;;2.73;76.49;102477.97;4974267;28;45309;-69
2023/01/25 10:37:50;;;;;;;;;29.00;27.75;;;;;2.67;76.46;102475.25;4972649;28;45529;-70
2023/01/25 10:40:22;;;;;;;;;35.00;27.75;;;;;2.58;75.85;102481.94;4972873;28;45518;-68
2023/01/25 10:42:53;;;;;;;;;30.00;29.50;;;;;2.54;77.46;102472.31;4973434;28;47231;-67
2023/01/25 10:45:20;;;;;;;;;31.75;31.00;;;;;2.59;77.00;102467.25;4973959;28;45409;-67
2023/01/25 10:47:56;;;;;;;;;36.75;34.25;;;;;2.65;76.97;102475.19;4974053;28;45286;-70
2023/01/25 10:50:45;;;;;;;;;30.25;28.75;;;;;2.64;76.20;102473.44;4975195;28;45295;-69
2023/01/25 10:53:42;;;;;;;;;50.00;43.00;;;;;2.59;76.79;102468.13;4974147;28;45426;-68
2023/01/25 10:56:18;;;;;;;;;47.00;40.00;;;;;2.57;77.03;102464.59;4974219;28;45522;-69
2023/01/25 10:58:46;;;;;;;;;29.00;28.00;;;;;2.55;76.45;102453.28;4974406;28;45285;-70
2023/01/25 11:01:29;;;;;;;;;34.00;30.75;;;;;2.58;75.77;102457.69;4974386;28;45376;-68
2023/01/25 11:03:55;;;;;;;;;31.75;30.25;;;;;2.51;76.94;102448.00;4974429;28;46724;-69
2023/01/25 11:06:50;;;;;;;;;59.00;47.25;;;;;2.53;76.79;102443.72;4972138;28;45233;-69
2023/01/25 11:09:30;;;;;;;;;47.25;42.25;;;;;2.56;76.71;102444.66;4974972;27;45318;-70
2023/01/25 11:12:15;;;;;;;;;34.00;33.50;;;;;2.59;77.30;102442.13;4973832;28;45294;-70
2023/01/25 11:14:41;;;;;;;;;33.25;32.75;;;;;2.37;76.73;102403.50;4973391;28;47030;-67
2023/01/25 11:17:30;;;;;;;;;33.00;32.00;;;;;2.53;76.76;102430.75;4971789;28;45503;-69
2023/01/25 11:20:16;;;;;;;;;29.75;29.25;;;;;2.46;76.24;102434.91;4973832;28;45512;-70
2023/01/25 11:22:56;;;;;;;;;39.25;35.25;;;;;2.45;76.68;102431.44;4972195;28;45438;-70
2023/01/25 11:25:29;;;;;;;;;35.00;34.00;;;;;2.42;76.34;102431.38;4972843;28;45459;-70